createdAt,value
2022-12-26T00:02:46.854Z,95924.66
2022-12-26T00:07:48.428Z,95925.72
2022-12-26T00:12:49.968Z,95941.25
2022-12-26T00:17:51.483Z,95936.38
2022-12-26T00:22:54.983Z,95945.47
2022-12-26T00:27:56.824Z,95959.19
2022-12-26T00:32:58.908Z,95953.09
2022-12-26T00:38:01.288Z,95955.19
2022-12-26T00:43:02.863Z,95960.78
2022-12-26T00:48:04.460Z,95960.81
2022-12-26T00:53:06.006Z,95959.81
2022-12-26T00:58:07.628Z,95958.13
2022-12-26T01:03:11.351Z,95970.97
2022-12-26T01:08:23.310Z,95953.88
2022-12-26T01:13:25.931Z,95972.78
2022-12-26T01:18:27.672Z,95968.50
2022-12-26T01:23:29.817Z,95963.47
2022-12-26T01:28:31.435Z,95970.91
2022-12-26T01:33:33.391Z,95974.34
2022-12-26T01:38:35.084Z,95978.56
2022-12-26T01:44:07.620Z,95987.44
2022-12-26T01:49:15.751Z,95986.13
2022-12-26T01:54:39.529Z,95986.69
2022-12-26T01:59:41.622Z,95988.59
2022-12-26T02:04:50.047Z,95992.97
2022-12-26T02:09:52.072Z,95997.44
2022-12-26T02:14:56.884Z,96000.72
2022-12-26T02:20:13.352Z,95992.59
2022-12-26T02:25:45.587Z,95991.94
2022-12-26T02:31:05.376Z,95998.28
2022-12-26T02:36:34.697Z,95995.91
2022-12-26T02:41:48.353Z,95983.13
2022-12-26T02:47:00.492Z,95979.31
2022-12-26T02:52:19.758Z,95976.81
2022-12-26T02:57:24.971Z,95966.16
2022-12-26T03:02:45.623Z,95979.06
2022-12-26T03:07:48.030Z,95982.78
2022-12-26T03:12:57.976Z,95972.06
2022-12-26T03:18:06.985Z,95982.78
2022-12-26T03:23:13.722Z,95981.09
2022-12-26T03:28:15.947Z,95987.06
2022-12-26T03:33:35.217Z,95986.88
2022-12-26T03:39:06.763Z,96005.06
2022-12-26T03:44:20.477Z,95995.38
2022-12-26T03:49:29.520Z,96002.69
2022-12-26T03:54:56.233Z,96002.94
2022-12-26T04:00:16.330Z,96002.78
2022-12-26T04:05:18.997Z,96008.53
2022-12-26T04:10:33.371Z,96008.72
2022-12-26T04:15:47.441Z,96005.38
2022-12-26T04:21:30.595Z,96003.78
2022-12-26T04:26:37.417Z,96007.81
2022-12-26T04:32:01.873Z,96005.38
2022-12-26T04:37:07.139Z,96006.22
2022-12-26T04:42:09.807Z,96002.38
2022-12-26T04:47:11.881Z,96005.81
2022-12-26T04:52:15.034Z,95996.88
2022-12-26T04:57:16.569Z,96004.16
2022-12-26T05:02:18.331Z,96014.16
2022-12-26T05:07:31.190Z,95998.91
2022-12-26T05:12:32.875Z,96006.00
2022-12-26T05:17:34.407Z,95996.09
2022-12-26T05:22:40.050Z,95986.72
2022-12-26T05:27:44.192Z,95989.47
2022-12-26T05:32:46.198Z,95968.28
2022-12-26T05:37:47.773Z,95987.47
2022-12-26T05:42:49.286Z,95993.25
2022-12-26T05:47:52.177Z,95992.31
2022-12-26T05:52:56.040Z,95991.75
2022-12-26T05:58:00.435Z,95989.38
2022-12-26T06:03:02.118Z,95989.53
2022-12-26T06:08:04.415Z,95984.91
2022-12-26T06:13:06.017Z,95975.38
2022-12-26T06:18:07.724Z,95983.78
2022-12-26T06:23:09.332Z,95979.59
2022-12-26T06:28:10.926Z,95977.28
2022-12-26T06:33:12.537Z,95966.78
2022-12-26T06:38:14.348Z,95965.09
2022-12-26T06:43:16.088Z,95957.53
2022-12-26T06:48:17.767Z,95958.50
2022-12-26T06:53:19.471Z,95962.63
2022-12-26T06:58:21.560Z,95953.28
2022-12-26T07:03:23.110Z,95962.47
2022-12-26T07:08:24.667Z,95964.91
2022-12-26T07:13:26.344Z,95967.06
2022-12-26T07:18:27.957Z,95966.34
2022-12-26T07:23:29.775Z,95959.22
2022-12-26T07:28:32.223Z,95950.97
2022-12-26T07:33:33.945Z,95952.19
2022-12-26T07:38:35.613Z,95951.47
2022-12-26T07:43:37.302Z,95955.50
2022-12-26T07:48:38.919Z,95948.78
2022-12-26T07:53:41.484Z,95948.00
2022-12-26T07:58:43.146Z,95951.09
2022-12-26T08:03:45.335Z,95945.50
2022-12-26T08:08:51.044Z,95950.50
2022-12-26T08:13:52.969Z,95948.72
2022-12-26T08:18:54.578Z,95956.06
2022-12-26T08:23:56.236Z,95958.25
2022-12-26T08:28:57.976Z,95966.50
2022-12-26T08:34:04.259Z,95967.78
2022-12-26T08:39:13.465Z,95963.50
2022-12-26T08:44:30.628Z,95946.56
2022-12-26T08:49:32.346Z,95957.78
2022-12-26T08:54:34.299Z,95967.06
2022-12-26T08:59:35.929Z,95958.66
2022-12-26T09:04:37.556Z,95965.25
2022-12-26T09:09:39.136Z,95960.13
2022-12-26T09:14:40.716Z,95959.22
2022-12-26T09:19:42.868Z,95965.91
2022-12-26T09:24:44.769Z,95971.78
2022-12-26T09:29:46.320Z,95982.75
2022-12-26T09:34:49.013Z,95979.38
2022-12-26T09:39:50.590Z,95980.59
2022-12-26T09:44:58.869Z,95981.72
2022-12-26T09:50:09.458Z,95991.53
2022-12-26T09:55:46.697Z,95992.25
2022-12-26T10:01:13.896Z,96003.28
2022-12-26T10:06:26.641Z,96014.63
2022-12-26T10:11:43.558Z,96017.84
2022-12-26T10:43:44.580Z,96038.38
2022-12-26T10:48:46.490Z,96054.25
2022-12-26T10:53:51.146Z,96045.75
2022-12-26T11:04:31.217Z,96062.53
2022-12-26T11:09:45.511Z,96086.50
2022-12-26T11:20:16.000Z,96100.56
2022-12-26T11:25:27.161Z,96117.81
2022-12-26T11:30:34.634Z,96131.75
2022-12-26T11:35:44.726Z,96130.56
2022-12-26T11:40:48.911Z,96134.72
2022-12-26T11:45:50.698Z,96130.09
2022-12-26T12:02:19.927Z,96130.53
2022-12-26T12:07:40.332Z,96140.00
2022-12-26T12:12:59.962Z,96142.66
2022-12-26T12:18:40.004Z,96146.53
2022-12-26T12:24:26.570Z,96149.38
2022-12-26T12:29:34.037Z,96149.56
2022-12-26T12:34:51.412Z,96151.16
2022-12-26T12:40:13.982Z,96154.88
2022-12-26T12:45:29.095Z,96155.00
2022-12-26T12:50:56.189Z,96148.84
2022-12-26T12:56:42.225Z,96159.78
2022-12-26T13:01:48.784Z,96162.69
2022-12-26T13:07:22.821Z,96171.63
2022-12-26T13:12:29.255Z,96177.63
2022-12-26T13:17:36.348Z,96169.53
2022-12-26T13:22:45.886Z,96176.69
2022-12-26T13:27:49.488Z,96167.88
2022-12-26T13:32:56.215Z,96167.50
2022-12-26T13:43:26.485Z,96162.31
2022-12-26T13:48:31.544Z,96169.03
2022-12-26T17:02:34.494Z,96149.69
2022-12-26T17:07:44.576Z,96173.38
2022-12-26T17:12:48.629Z,96175.16
2022-12-26T17:17:50.394Z,96191.25
2022-12-26T17:22:53.652Z,96194.47
2022-12-26T17:28:07.631Z,96228.25
2022-12-26T17:33:28.732Z,96164.59
2022-12-26T17:38:30.433Z,96175.25
2022-12-26T17:43:31.946Z,96185.84
2022-12-26T17:48:34.699Z,96156.06
2022-12-26T17:53:42.186Z,96210.97
2022-12-26T17:58:44.421Z,96209.88
2022-12-26T18:03:45.973Z,96183.56
2022-12-26T18:08:47.675Z,96208.41
2022-12-26T18:13:49.244Z,96180.25
2022-12-26T18:18:50.817Z,96165.13
2022-12-26T18:23:52.359Z,96194.81
2022-12-26T18:28:54.030Z,96207.84
2022-12-26T18:33:56.003Z,96210.81
2022-12-26T18:38:57.510Z,96219.13
2022-12-26T18:43:58.996Z,96233.06
2022-12-26T18:49:00.782Z,96225.13
2022-12-26T18:54:02.384Z,96224.34
2022-12-26T18:59:03.939Z,96196.03
2022-12-26T19:20:23.172Z,96245.78
2022-12-26T19:37:35.028Z,96250.25
2022-12-26T19:42:37.895Z,96244.84
2022-12-26T19:47:41.955Z,96251.50
2022-12-26T19:52:44.246Z,96247.56
2022-12-26T20:19:47.716Z,96283.00
2022-12-26T20:30:18.081Z,96309.91
2022-12-26T20:46:15.663Z,96297.78
2022-12-26T21:40:22.686Z,96425.69
2022-12-26T21:50:45.514Z,96442.22
2022-12-26T21:55:47.417Z,96447.94
2022-12-26T22:00:49.367Z,96458.50
2022-12-26T22:05:51.092Z,96464.03
2022-12-26T22:10:52.863Z,96471.88
2022-12-26T22:15:56.378Z,96470.38
2022-12-26T22:21:05.591Z,96466.84
2022-12-26T22:26:08.985Z,96477.91
2022-12-26T22:31:23.781Z,96481.25
2022-12-26T22:36:26.827Z,96487.97
2022-12-26T22:41:29.839Z,96481.88
2022-12-26T22:46:31.769Z,96486.81
2022-12-26T22:51:33.735Z,96485.75
2022-12-26T22:56:35.426Z,96491.81
2022-12-26T23:01:37.208Z,96497.63
2022-12-26T23:06:39.795Z,96510.81
2022-12-26T23:11:41.834Z,96518.44
2022-12-26T23:16:56.374Z,96519.75
2022-12-26T23:22:00.667Z,96529.34
2022-12-26T23:27:11.622Z,96524.16
2022-12-26T23:32:13.619Z,96522.97
2022-12-26T23:37:15.267Z,96517.72
2022-12-26T23:42:17.785Z,96519.88
2022-12-26T23:47:19.471Z,96526.66
2022-12-26T23:52:24.160Z,96538.22
2022-12-26T23:57:30.753Z,96541.34
